Time,TemperatureF,DewpointF,PressureIn,WindDirection,WindDirectionDegrees,WindSpeedMPH,WindSpeedGustMPH,Humidity,HourlyPrecipIn,Conditions,Clouds,dailyrainin,SoftwareType,DateUTC
2013-06-16 00:00:00,66.9,63.9,30.07,SE,135,0.0,0.0,90,0.00,CLR,,0.00,WeatherDisplay:10.37,2013-06-16 04:00:00,
2013-06-16 00:10:00,66.6,63.6,30.07,SE,135,0.0,0.0,90,0.00,CLR,,0.00,WeatherDisplay:10.37,2013-06-16 04:10:00,
2013-06-16 00:20:00,66.5,63.8,30.07,SE,135,0.0,0.0,91,0.00,CLR,,0.00,WeatherDisplay:10.37,2013-06-16 04:20:00,
2013-06-16 00:30:00,66.3,63.6,30.08,SE,135,0.0,0.0,91,0.00,CLR,,0.00,WeatherDisplay:10.37,2013-06-16 04:30:00,
2013-06-16 00:40:00,66.2,63.8,30.07,SE,135,0.0,0.0,92,0.00,CLR,,0.00,WeatherDisplay:10.37,2013-06-16 04:40:00,
2013-06-16 00:50:00,66.1,63.4,30.07,SE,135,0.0,0.0,91,0.00,CLR,,0.00,WeatherDisplay:10.37,2013-06-16 04:50:00,
2013-06-16 01:00:00,66.0,63.6,30.08,SE,135,0.0,0.0,92,0.00,CLR,,0.00,WeatherDisplay:10.37,2013-06-16 05:00:00,
2013-06-16 01:10:00,65.8,63.4,30.07,SE,135,0.0,0.0,92,0.00,CLR,,0.00,WeatherDisplay:10.37,2013-06-16 05:10:00,
2013-06-16 01:20:00,65.7,63.3,30.08,SE,135,0.0,1.0,92,0.00,CLR,,0.00,WeatherDisplay:10.37,2013-06-16 05:20:00,
2013-06-16 01:30:00,65.6,63.5,30.08,SE,135,0.0,0.0,93,0.00,CLR,,0.00,WeatherDisplay:10.37,2013-06-16 05:30:00,
2013-06-16 01:40:00,65.6,63.5,30.08,SE,135,0.0,1.0,93,0.00,CLR,,0.00,WeatherDisplay:10.37,2013-06-16 05:40:00,
2013-06-16 01:50:00,65.7,63.9,30.08,SE,135,0.0,0.0,94,0.00,CLR,,0.00,WeatherDisplay:10.37,2013-06-16 05:50:00,
2013-06-16 02:00:00,65.7,63.9,30.07,SE,135,0.0,0.0,94,0.00,CLR,,0.00,WeatherDisplay:10.37,2013-06-16 06:00:00,
2013-06-16 02:10:00,65.6,63.9,30.07,SE,135,0.0,0.0,94,0.00,CLR,,0.00,WeatherDisplay:10.37,2013-06-16 06:10:00,
2013-06-16 02:20:00,65.7,63.9,30.07,SE,135,0.0,1.0,94,0.00,CLR,,0.00,WeatherDisplay:10.37,2013-06-16 06:20:00,
2013-06-16 02:30:00,65.7,63.9,30.07,SE,135,0.0,0.0,94,0.00,CLR,,0.00,WeatherDisplay:10.37,2013-06-16 06:30:00,
2013-06-16 02:40:00,65.7,63.9,30.07,SE,135,0.0,0.0,94,0.00,CLR,,0.00,WeatherDisplay:10.37,2013-06-16 06:40:00,
2013-06-16 02:50:00,65.6,63.8,30.06,SE,135,0.0,2.0,94,0.00,CLR,,0.00,WeatherDisplay:10.37,2013-06-16 06:50:00,
2013-06-16 03:00:00,65.8,64.0,30.06,SE,135,0.0,1.0,94,0.00,CLR,,0.00,WeatherDisplay:10.37,2013-06-16 07:00:00,
2013-06-16 03:10:00,66.0,64.2,30.06,SE,135,0.0,1.0,94,0.00,CLR,,0.00,WeatherDisplay:10.37,2013-06-16 07:10:00,
2013-06-16 03:20:00,66.0,64.2,30.06,SE,135,0.0,2.0,94,0.00,CLR,,0.00,WeatherDisplay:10.37,2013-06-16 07:20:00,
2013-06-16 03:30:00,65.8,64.0,30.06,SE,135,0.0,0.0,94,0.00,CLR,,0.00,WeatherDisplay:10.37,2013-06-16 07:30:00,
2013-06-16 03:40:00,65.6,63.8,30.06,SE,135,0.0,1.0,94,0.00,CLR,,0.00,WeatherDisplay:10.37,2013-06-16 07:40:00,
2013-06-16 03:50:00,65.6,63.8,30.06,SE,135,0.0,0.0,94,0.00,CLR,,0.00,WeatherDisplay:10.37,2013-06-16 07:50:00,
2013-06-16 04:00:00,65.5,63.7,30.06,SE,135,0.0,0.0,94,0.00,CLR,,0.00,WeatherDisplay:10.37,2013-06-16 08:00:00,
2013-06-16 04:10:00,65.4,63.6,30.06,SE,135,0.0,0.0,94,0.00,CLR,,0.00,WeatherDisplay:10.37,2013-06-16 08:10:00,
2013-06-16 04:20:00,65.2,63.4,30.06,SE,135,0.0,0.0,94,0.00,CLR,,0.00,WeatherDisplay:10.37,2013-06-16 08:20:00,
2013-06-16 04:30:00,65.0,63.5,30.06,SE,135,0.0,0.0,95,0.00,CLR,,0.00,WeatherDisplay:10.37,2013-06-16 08:30:00,
2013-06-16 04:40:00,64.9,63.4,30.07,SE,135,0.0,0.0,95,0.00,CLR,,0.00,WeatherDisplay:10.37,2013-06-16 08:40:00,
2013-06-16 04:50:00,64.8,63.3,30.07,SE,135,0.0,0.0,95,0.00,CLR,,0.00,WeatherDisplay:10.37,2013-06-16 08:50:00,
2013-06-16 05:00:00,64.7,63.2,30.07,SE,135,0.0,0.0,95,0.00,CLR,,0.00,WeatherDisplay:10.37,2013-06-16 09:00:00,
2013-06-16 05:10:00,64.5,63.1,30.07,SE,135,0.0,0.0,95,0.00,CLR,,0.00,WeatherDisplay:10.37,2013-06-16 09:10:00,
2013-06-16 05:20:00,64.4,62.9,30.08,SE,135,0.0,0.0,95,0.00,CLR,,0.00,WeatherDisplay:10.37,2013-06-16 09:20:00,
2013-06-16 05:30:00,64.3,63.1,30.08,SE,135,0.0,1.0,96,0.00,CLR,,0.00,WeatherDisplay:10.37,2013-06-16 09:30:00,
2013-06-16 05:40:00,64.2,62.7,30.08,SE,135,0.0,0.0,95,0.00,CLR,,0.00,WeatherDisplay:10.37,2013-06-16 09:40:00,
2013-06-16 05:50:00,64.0,62.6,30.08,SE,135,0.0,0.0,95,0.00,CLR,,0.00,WeatherDisplay:10.37,2013-06-16 09:50:00,
2013-06-16 06:00:00,63.9,62.7,30.08,SE,135,0.0,0.0,96,0.00,CLR,,0.00,WeatherDisplay:10.37,2013-06-16 10:00:00,
2013-06-16 06:10:00,63.8,62.6,30.08,ESE,113,0.0,0.0,96,0.00,CLR,,0.00,WeatherDisplay:10.37,2013-06-16 10:10:00,
2013-06-16 06:20:00,63.8,62.6,30.08,ENE,74,0.0,1.0,96,0.00,CLR,,0.00,WeatherDisplay:10.37,2013-06-16 10:20:00,
2013-06-16 06:30:00,63.8,62.6,30.09,ENE,62,0.0,2.0,96,0.00,CLR,,0.00,WeatherDisplay:10.37,2013-06-16 10:30:00,
2013-06-16 06:40:00,63.8,62.7,30.09,NE,36,0.0,2.0,96,0.00,CLR,,0.00,WeatherDisplay:10.37,2013-06-16 10:40:00,
2013-06-16 06:50:00,63.9,62.7,30.09,NE,36,0.0,1.0,96,0.00,CLR,,0.00,WeatherDisplay:10.37,2013-06-16 10:50:00,
2013-06-16 07:00:00,63.9,62.8,30.10,NNE,18,0.0,1.0,96,0.00,CLR,,0.00,WeatherDisplay:10.37,2013-06-16 11:00:00,
2013-06-16 07:10:00,64.1,62.9,30.10,WNW,300,0.0,0.0,96,0.00,CLR,,0.00,WeatherDisplay:10.37,2013-06-16 11:10:00,
2013-06-16 07:20:00,64.2,63.0,30.10,WNW,300,0.0,0.0,96,0.00,CLR,,0.00,WeatherDisplay:10.37,2013-06-16 11:20:00,
2013-06-16 07:30:00,64.5,63.3,30.10,WNW,300,0.0,0.0,96,0.00,CLR,,0.00,WeatherDisplay:10.37,2013-06-16 11:30:00,
2013-06-16 07:40:00,64.9,63.8,30.11,WNW,300,0.0,0.0,96,0.00,SCT,,0.00,WeatherDisplay:10.37,2013-06-16 11:40:00,
2013-06-16 07:50:00,65.7,64.5,30.11,WNW,294,0.0,0.0,96,0.00,SCT,,0.00,WeatherDisplay:10.37,2013-06-16 11:50:00,
2013-06-16 08:00:00,66.2,65.0,30.11,ENE,76,0.0,1.0,96,0.00,SCT,,0.00,WeatherDisplay:10.37,2013-06-16 12:00:00,
2013-06-16 08:10:00,66.6,64.8,30.12,ENE,76,0.0,1.0,94,0.00,CLR,,0.00,WeatherDisplay:10.37,2013-06-16 12:10:00,
2013-06-16 08:20:00,67.7,64.6,30.12,South,187,0.0,4.0,90,0.00,CLR,,0.00,WeatherDisplay:10.37,2013-06-16 12:20:00,
2013-06-16 08:30:00,69.1,64.4,30.12,SSW,203,1.0,5.0,85,0.00,CLR,,0.00,WeatherDisplay:10.37,2013-06-16 12:30:00,
2013-06-16 08:40:00,70.5,64.7,30.12,SW,236,1.0,5.0,82,0.00,BKN,,0.00,WeatherDisplay:10.37,2013-06-16 12:40:00,
2013-06-16 08:50:00,71.7,64.8,30.12,SSW,201,0.0,5.0,79,0.00,SCT,,0.00,WeatherDisplay:10.37,2013-06-16 12:50:00,
2013-06-16 09:00:00,72.4,64.7,30.12,SSW,209,0.0,7.0,77,0.00,SCT,,0.00,WeatherDisplay:10.37,2013-06-16 13:00:00,
2013-06-16 09:10:00,73.0,65.4,30.12,SSW,193,0.0,6.0,77,0.00,CLR,,0.00,WeatherDisplay:10.37,2013-06-16 13:10:00,
2013-06-16 09:20:00,73.1,64.3,30.12,SSW,205,2.0,7.0,74,0.00,CLR,,0.00,WeatherDisplay:10.37,2013-06-16 13:20:00,
2013-06-16 09:30:00,73.7,64.9,30.12,SSW,207,2.0,4.0,74,0.00,CLR,,0.00,WeatherDisplay:10.37,2013-06-16 13:30:00,
2013-06-16 09:40:00,74.0,64.4,30.12,SSE,168,2.0,7.0,72,0.00,CLR,,0.00,WeatherDisplay:10.37,2013-06-16 13:40:00,
2013-06-16 09:50:00,74.4,64.8,30.12,SSW,199,3.0,8.0,72,0.00,CLR,,0.00,WeatherDisplay:10.37,2013-06-16 13:50:00,
2013-06-16 10:00:00,74.8,64.8,30.12,SSW,197,2.0,9.0,71,0.00,CLR,,0.00,WeatherDisplay:10.37,2013-06-16 14:00:00,
2013-06-16 10:10:00,75.4,65.7,30.11,SSW,205,1.0,5.0,72,0.00,CLR,,0.00,WeatherDisplay:10.37,2013-06-16 14:10:00,
2013-06-16 10:20:00,75.3,65.2,30.11,SW,227,3.0,9.0,71,0.00,CLR,,0.00,WeatherDisplay:10.37,2013-06-16 14:20:00,
2013-06-16 10:30:00,75.6,65.5,30.11,SSW,201,3.0,8.0,71,0.00,CLR,,0.00,WeatherDisplay:10.37,2013-06-16 14:30:00,
2013-06-16 10:40:00,76.0,65.9,30.10,SSE,168,5.0,9.0,71,0.00,CLR,,0.00,WeatherDisplay:10.37,2013-06-16 14:40:00,
2013-06-16 10:50:00,76.4,66.3,30.10,South,183,5.0,9.0,71,0.00,CLR,,0.00,WeatherDisplay:10.37,2013-06-16 14:50:00,
2013-06-16 11:00:00,77.0,66.5,30.10,South,175,1.0,7.0,70,0.00,CLR,,0.00,WeatherDisplay:10.37,2013-06-16 15:00:00,
2013-06-16 11:10:00,78.0,67.8,30.10,West,267,1.0,5.0,71,0.00,CLR,,0.00,WeatherDisplay:10.37,2013-06-16 15:10:00,
2013-06-16 11:20:00,79.0,67.5,30.10,SW,226,1.0,10.0,68,0.00,CLR,,0.00,WeatherDisplay:10.37,2013-06-16 15:20:00,
2013-06-16 11:30:00,79.1,68.4,30.09,South,188,1.0,9.0,70,0.00,CLR,,0.00,WeatherDisplay:10.37,2013-06-16 15:30:00,
2013-06-16 11:40:00,79.6,68.1,30.09,South,186,5.0,7.0,68,0.00,CLR,,0.00,WeatherDisplay:10.37,2013-06-16 15:40:00,
2013-06-16 11:50:00,79.9,68.8,30.09,SSE,151,2.0,8.0,69,0.00,CLR,,0.00,WeatherDisplay:10.37,2013-06-16 15:50:00,
2013-06-16 12:00:00,80.6,69.0,30.09,South,175,1.0,9.0,68,0.00,CLR,,0.00,WeatherDisplay:10.37,2013-06-16 16:00:00,
2013-06-16 12:10:00,81.3,69.7,30.08,SE,135,5.0,9.0,68,0.00,CLR,,0.00,WeatherDisplay:10.37,2013-06-16 16:10:00,
2013-06-16 12:20:00,82.0,69.5,30.07,South,175,2.0,9.0,66,0.00,CLR,,0.00,WeatherDisplay:10.37,2013-06-16 16:20:00,
2013-06-16 12:30:00,82.5,69.6,30.07,SSE,147,0.0,7.0,65,0.00,CLR,,0.00,WeatherDisplay:10.37,2013-06-16 16:30:00,
2013-06-16 12:40:00,83.4,69.9,30.07,SSE,151,2.0,9.0,64,0.00,CLR,,0.00,WeatherDisplay:10.37,2013-06-16 16:40:00,
2013-06-16 12:50:00,83.7,70.2,30.07,South,179,2.0,9.0,64,0.00,CLR,,0.00,WeatherDisplay:10.37,2013-06-16 16:50:00,
2013-06-16 13:00:00,83.8,69.4,30.06,South,180,1.0,6.0,62,0.00,CLR,,0.00,WeatherDisplay:10.37,2013-06-16 17:00:00,
2013-06-16 13:10:00,83.8,69.9,30.06,South,179,1.0,8.0,63,0.00,CLR,,0.00,WeatherDisplay:10.37,2013-06-16 17:10:00,
2013-06-16 13:20:00,84.1,68.7,30.06,SSW,203,2.0,7.0,60,0.00,CLR,,0.00,WeatherDisplay:10.37,2013-06-16 17:20:00,
2013-06-16 13:30:00,84.4,70.0,30.06,SSE,156,1.0,7.0,62,0.00,CLR,,0.00,WeatherDisplay:10.37,2013-06-16 17:30:00,
2013-06-16 13:40:00,84.3,68.9,30.06,SW,221,1.0,6.0,60,0.00,CLR,,0.00,WeatherDisplay:10.37,2013-06-16 17:40:00,
2013-06-16 13:50:00,85.0,70.1,30.05,WSW,254,3.0,9.0,61,0.00,SCT,,0.00,WeatherDisplay:10.37,2013-06-16 17:50:00,
2013-06-16 14:00:00,85.6,70.1,30.04,South,176,2.0,12.0,60,0.00,SCT,,0.00,WeatherDisplay:10.37,2013-06-16 18:00:00,
2013-06-16 14:10:00,86.1,70.6,30.04,South,173,5.0,10.0,60,0.00,SCT,,0.00,WeatherDisplay:10.37,2013-06-16 18:10:00,
2013-06-16 14:20:00,86.1,69.6,30.03,South,187,1.0,8.0,58,0.00,SCT,,0.00,WeatherDisplay:10.37,2013-06-16 18:20:00,
2013-06-16 14:30:00,86.2,70.2,30.04,SSE,166,3.0,12.0,59,0.00,SCT,,0.00,WeatherDisplay:10.37,2013-06-16 18:30:00,
2013-06-16 14:40:00,85.5,70.0,30.03,SSW,206,2.0,7.0,60,0.00,SCT,,0.00,WeatherDisplay:10.37,2013-06-16 18:40:00,
2013-06-16 14:50:00,85.9,69.9,30.03,WSW,239,1.0,7.0,59,0.00,SCT,,0.00,WeatherDisplay:10.37,2013-06-16 18:50:00,
2013-06-16 15:00:00,85.8,70.3,30.03,WSW,241,2.0,12.0,60,0.00,SCT,,0.00,WeatherDisplay:10.37,2013-06-16 19:00:00,
2013-06-16 15:10:00,85.9,69.4,30.02,SSW,206,2.0,12.0,58,0.00,SCT,,0.00,WeatherDisplay:10.37,2013-06-16 19:10:00,
2013-06-16 15:20:00,86.5,69.5,30.01,SSW,209,3.0,10.0,57,0.00,SCT,,0.00,WeatherDisplay:10.37,2013-06-16 19:20:00,
2013-06-16 15:30:00,86.6,69.0,30.01,SW,222,3.0,13.0,56,0.00,SCT,,0.00,WeatherDisplay:10.37,2013-06-16 19:30:00,
2013-06-16 15:40:00,86.6,68.5,30.01,SW,224,6.0,10.0,55,0.00,SCT,,0.00,WeatherDisplay:10.37,2013-06-16 19:40:00,
2013-06-16 15:50:00,86.6,69.0,30.01,SSW,198,3.0,7.0,56,0.00,BKN,,0.00,WeatherDisplay:10.37,2013-06-16 19:50:00,
2013-06-16 16:00:00,86.3,67.1,30.01,WSW,251,2.0,8.0,53,0.00,BKN,,0.00,WeatherDisplay:10.37,2013-06-16 20:00:00,
2013-06-16 16:10:00,87.0,68.9,30.00,WSW,240,2.0,6.0,55,0.00,BKN,,0.00,WeatherDisplay:10.37,2013-06-16 20:10:00,
2013-06-16 16:20:00,87.6,68.9,30.00,SSW,210,1.0,7.0,54,0.00,SCT,,0.00,WeatherDisplay:10.37,2013-06-16 20:20:00,
2013-06-16 16:30:00,88.0,69.8,30.00,WSW,251,1.0,5.0,55,0.00,SCT,,0.00,WeatherDisplay:10.37,2013-06-16 20:30:00,
2013-06-16 16:40:00,87.7,69.5,30.00,West,260,1.0,8.0,55,0.00,SCT,,0.00,WeatherDisplay:10.37,2013-06-16 20:40:00,
2013-06-16 16:50:00,87.5,69.9,29.99,WSW,238,2.0,9.0,56,0.00,SCT,,0.00,WeatherDisplay:10.37,2013-06-16 20:50:00,
2013-06-16 17:00:00,87.5,70.4,29.99,SSE,156,3.0,9.0,57,0.00,SCT,,0.00,WeatherDisplay:10.37,2013-06-16 21:00:00,
2013-06-16 17:10:00,86.8,68.7,29.98,South,178,6.0,10.0,55,0.00,SCT,,0.00,WeatherDisplay:10.37,2013-06-16 21:10:00,
2013-06-16 17:20:00,86.2,70.2,29.98,South,179,2.0,5.0,59,0.00,BKN,,0.00,WeatherDisplay:10.37,2013-06-16 21:20:00,
2013-06-16 17:30:00,85.6,71.6,29.98,South,175,2.0,5.0,63,0.00,BKN,,0.00,WeatherDisplay:10.37,2013-06-16 21:30:00,
2013-06-16 17:40:00,84.6,71.5,29.98,WSW,258,0.0,3.0,65,0.00,SCT,,0.00,WeatherDisplay:10.37,2013-06-16 21:40:00,
2013-06-16 17:50:00,84.4,71.8,29.98,WSW,258,0.0,3.0,66,0.00,BKN,,0.00,WeatherDisplay:10.37,2013-06-16 21:50:00,
2013-06-16 18:00:00,84.6,72.0,29.98,WSW,258,1.0,4.0,66,0.00,BKN,,0.00,WeatherDisplay:10.37,2013-06-16 22:00:00,
2013-06-16 18:10:00,84.8,71.7,29.98,WSW,248,2.0,7.0,65,0.00,BKN,,0.00,WeatherDisplay:10.37,2013-06-16 22:10:00,
2013-06-16 18:20:00,85.0,71.5,29.97,WSW,252,5.0,8.0,64,0.00,BKN,,0.00,WeatherDisplay:10.37,2013-06-16 22:20:00,
2013-06-16 18:30:00,84.6,71.1,29.97,WSW,240,2.0,7.0,64,0.00,BKN,,0.00,WeatherDisplay:10.37,2013-06-16 22:30:00,
2013-06-16 18:40:00,83.9,71.8,29.97,WSW,255,1.0,5.0,67,0.00,BKN,,0.00,WeatherDisplay:10.37,2013-06-16 22:40:00,
2013-06-16 18:50:00,83.7,72.0,29.97,WSW,257,1.0,4.0,68,0.00,BKN,,0.00,WeatherDisplay:10.37,2013-06-16 22:50:00,
2013-06-16 19:00:00,83.6,71.5,29.97,WSW,245,2.0,5.0,67,0.00,BKN,,0.00,WeatherDisplay:10.37,2013-06-16 23:00:00,
2013-06-16 19:10:00,83.4,71.7,29.98,WSW,252,0.0,4.0,68,0.00,SCT,,0.00,WeatherDisplay:10.37,2013-06-16 23:10:00,
2013-06-16 19:20:00,83.3,70.8,29.99,SW,215,2.0,9.0,66,0.00,SCT,,0.00,WeatherDisplay:10.37,2013-06-16 23:20:00,
2013-06-16 19:30:00,83.2,71.1,29.99,SSW,197,1.0,8.0,67,0.00,SCT,,0.00,WeatherDisplay:10.37,2013-06-16 23:30:00,
2013-06-16 19:40:00,83.0,71.8,29.99,SSW,207,1.0,3.0,69,0.00,SCT,,0.00,WeatherDisplay:10.37,2013-06-16 23:40:00,
2013-06-16 19:50:00,82.4,71.6,29.98,SSW,207,0.0,3.0,70,0.00,CLR,,0.00,WeatherDisplay:10.37,2013-06-16 23:50:00,
2013-06-16 20:00:00,82.1,71.7,29.98,SSW,207,1.0,4.0,71,0.00,CLR,,0.00,WeatherDisplay:10.37,2013-06-17 00:00:00,
2013-06-16 20:09:00,81.8,71.9,29.98,SSW,207,1.0,3.0,72,0.00,SCT,,0.00,WeatherDisplay:10.37,2013-06-17 00:09:00,
2013-06-16 20:19:00,81.2,72.9,29.99,SSW,207,0.0,4.0,76,0.00,SCT,,0.00,WeatherDisplay:10.37,2013-06-17 00:19:00,
2013-06-16 20:30:00,79.7,73.7,29.99,SSW,207,0.0,1.0,82,0.02,RA,,0.02,WeatherDisplay:10.37,2013-06-17 00:30:00,
2013-06-16 20:39:00,76.2,69.6,30.02,NNW,341,2.0,12.0,80,0.03,RA,,0.05,WeatherDisplay:10.37,2013-06-17 00:39:00,
2013-06-16 20:49:00,73.5,69.1,30.02,NE,36,0.0,5.0,86,0.03,-RA,,0.08,WeatherDisplay:10.37,2013-06-17 00:49:00,
2013-06-16 21:00:00,71.8,68.7,30.03,NNE,20,0.0,7.0,90,0.02,-RA,,0.11,WeatherDisplay:10.37,2013-06-17 01:00:00,
2013-06-16 21:09:00,71.0,68.6,30.05,NW,314,2.0,6.0,92,0.10,RA,,0.21,WeatherDisplay:10.37,2013-06-17 01:09:00,
2013-06-16 21:19:00,70.8,69.0,30.05,WNW,286,1.0,4.0,94,0.10,RA,,0.30,WeatherDisplay:10.37,2013-06-17 01:19:00,
2013-06-16 21:30:00,70.8,69.0,30.05,SSE,147,1.0,4.0,94,0.04,RA,,0.34,WeatherDisplay:10.37,2013-06-17 01:30:00,
2013-06-16 21:39:00,70.9,69.4,30.04,SW,226,0.0,1.0,95,0.00,OVC,,0.34,WeatherDisplay:10.37,2013-06-17 01:39:00,
2013-06-16 21:49:00,70.8,69.3,30.04,SW,226,0.0,1.0,95,0.00,OVC,,0.34,WeatherDisplay:10.37,2013-06-17 01:49:00,
2013-06-16 22:00:00,70.7,69.2,30.04,SW,226,0.0,2.0,95,0.01,RA,,0.35,WeatherDisplay:10.37,2013-06-17 02:00:00,
2013-06-16 22:09:00,70.7,69.2,30.04,SW,226,0.0,1.0,95,0.00,OVC,,0.35,WeatherDisplay:10.37,2013-06-17 02:09:00,
2013-06-16 22:19:00,70.6,69.1,30.04,SW,226,0.0,1.0,95,0.00,OVC,,0.35,WeatherDisplay:10.37,2013-06-17 02:19:00,
2013-06-16 22:30:00,70.4,69.2,30.04,SW,226,0.0,1.0,96,0.00,OVC,,0.35,WeatherDisplay:10.37,2013-06-17 02:30:00,
2013-06-16 22:39:00,70.2,68.7,30.04,SW,226,0.0,2.0,95,0.00,SCT,,0.35,WeatherDisplay:10.37,2013-06-17 02:39:00,
2013-06-16 22:49:00,69.9,68.7,30.04,SW,226,0.0,2.0,96,0.00,CLR,,0.35,WeatherDisplay:10.37,2013-06-17 02:49:00,
2013-06-16 23:00:00,70.1,68.9,30.04,SW,226,0.0,1.0,96,0.00,CLR,,0.35,WeatherDisplay:10.37,2013-06-17 03:00:00,
2013-06-16 23:09:00,70.2,69.0,30.03,SW,226,2.0,5.0,96,0.00,SCT,,0.35,WeatherDisplay:10.37,2013-06-17 03:09:00,
2013-06-16 23:19:00,70.3,69.1,30.04,SW,226,0.0,4.0,96,0.00,SCT,,0.35,WeatherDisplay:10.37,2013-06-17 03:19:00,
2013-06-16 23:30:00,70.4,69.2,30.04,SW,226,1.0,2.0,96,0.00,SCT,,0.35,WeatherDisplay:10.37,2013-06-17 03:30:00,
2013-06-16 23:39:00,70.2,69.0,30.03,SW,226,0.0,3.0,96,0.00,-RA,,0.35,WeatherDisplay:10.37,2013-06-17 03:39:00,
2013-06-16 23:49:00,70.2,69.0,30.03,SW,226,0.0,1.0,96,0.00,SCT,,0.35,WeatherDisplay:10.37,2013-06-17 03:49:00,